This is the latest recevied weather packets stored in our database for station/object W0AKY-13. If no packets are shown the sender has not sent any weather packets the latest 10 day(s).
| Time | Temp. | Humidity | Pressure | Rain* | Wind** | Luminosity | Snow |
|---|---|---|---|---|---|---|---|
| 1777480052 | 11.67° C | 66% | 1023.6 hPa | 0 mm | - | 620 W/m² | - |
| 1777479447 | 11.67° C | 70% | 1023.5 hPa | 0 mm | - | 612 W/m² | - |
| 1777478841 | 11.67° C | 72% | 1023.3 hPa | 0 mm | - | 636 W/m² | - |
| 1777478234 | 11.67° C | 74% | 1023.3 hPa | 0 mm | - | 549 W/m² | - |
| 1777477018 | 11.11° C | 77% | 1022.7 hPa | 0 mm | - | 394 W/m² | - |
| 1777476716 | 11.11° C | 78% | 1022.8 hPa | 0 mm | - | 490 W/m² | - |
| 1777476412 | 10.56° C | 78% | 1022.9 hPa | 0 mm | - | 489 W/m² | - |
| 1777474286 | 9.44° C | 82% | 1022.9 hPa | 0 mm | - | 105 W/m² | - |
| 1777470954 | 7.78° C | 89% | 1023 hPa | 0 mm | - | 50 W/m² | - |
| 1777468527 | 6.67° C | 94% | 1023.4 hPa | 0 mm | - | 26 W/m² | - |
| 1777468224 | 6.11° C | 95% | 1023.1 hPa | 0 mm | - | 34 W/m² | - |
| 1777465794 | 5° C | 97% | 1022.8 hPa | 0 mm | - | 17 W/m² | - |
| 1777465189 | 5° C | 98% | 1022.8 hPa | 0 mm | - | 16 W/m² | - |
| 1777464885 | 4.44° C | 98% | 1022.9 hPa | 0 mm | - | 14 W/m² | - |
| 1777464580 | 4.44° C | 98% | 1023 hPa | 0 mm | - | 13 W/m² | - |
| 1777463972 | 4.44° C | 98% | 1022.8 hPa | 0 mm | - | 10 W/m² | - |
| 1777462754 | 4.44° C | 98% | 1022.5 hPa | 0 mm | - | 5 W/m² | - |
| 1777462450 | 3.89° C | 98% | 1022.6 hPa | 0 mm | - | 3 W/m² | - |
| 1777462147 | 3.89° C | 98% | 1022.4 hPa | 0 mm | - | 2 W/m² | - |
| 1777461843 | 3.89° C | 98% | 1022.5 hPa | 0 mm | - | 1 W/m² | - |
| 1777461539 | 4.44° C | 98% | 1022.3 hPa | 0 mm | - | 0 W/m² | - |
| 1777461235 | 4.44° C | 98% | 1022.2 hPa | 0 mm | - | 0 W/m² | - |
| 1777460930 | 4.44° C | 99% | 1022.1 hPa | 0 mm | - | 0 W/m² | - |
| 1777460626 | 4.44° C | 99% | 1022 hPa | 0 mm | - | 0 W/m² | - |
| 1777460322 | 4.44° C | 99% | 1022 hPa | 0 mm | - | 0 W/m² | - |
* Rain latest hour (hover to see other rain measurements)
** Current wind speed in m/s (hover to see current wind gust speed)